createdAt,value
2024-01-31T00:00:06.290Z,7.95
2024-01-31T00:01:06.402Z,7.95
2024-01-31T00:02:06.409Z,7.98
2024-01-31T00:03:06.293Z,7.96
2024-01-31T00:04:06.390Z,7.98
2024-01-31T00:05:06.508Z,7.98
2024-01-31T00:06:06.215Z,7.98
2024-01-31T00:07:06.253Z,7.98
2024-01-31T00:08:06.214Z,7.99
2024-01-31T00:09:06.228Z,8.01
2024-01-31T00:10:06.260Z,8.01
2024-01-31T00:11:06.196Z,8.04
2024-01-31T00:12:06.167Z,8.02
2024-01-31T00:13:06.169Z,8.02
2024-01-31T00:14:06.160Z,8.01
2024-01-31T00:15:06.119Z,8.01
2024-01-31T00:16:06.187Z,8.01
2024-01-31T00:17:06.089Z,8.01
2024-01-31T00:18:06.180Z,8.01
2024-01-31T00:19:06.132Z,8.01
2024-01-31T00:20:06.130Z,8.02
2024-01-31T00:21:06.084Z,8.01
2024-01-31T00:22:06.080Z,8.05
2024-01-31T00:23:06.025Z,8.05
2024-01-31T00:24:06.017Z,8.04
2024-01-31T00:25:06.019Z,8.06
2024-01-31T00:26:06.007Z,8.04
2024-01-31T00:27:06.037Z,8.05
2024-01-31T00:28:05.998Z,8.05
2024-01-31T00:29:05.997Z,8.06
2024-01-31T00:30:05.978Z,8.05
2024-01-31T00:31:06.002Z,8.04
2024-01-31T00:32:05.938Z,8.05
2024-01-31T00:33:05.973Z,8.05
2024-01-31T00:34:06.006Z,8.05
2024-01-31T00:35:05.959Z,8.05
2024-01-31T00:36:05.883Z,8.05
2024-01-31T00:37:05.938Z,8.05
2024-01-31T00:38:05.859Z,8.04
2024-01-31T00:39:05.862Z,8.06
2024-01-31T00:40:05.857Z,8.09
2024-01-31T00:41:05.829Z,8.12
2024-01-31T00:42:05.813Z,8.06
2024-01-31T00:43:05.849Z,8.10
2024-01-31T00:44:05.781Z,8.10
2024-01-31T00:45:05.787Z,8.10
2024-01-31T00:46:05.884Z,8.12
2024-01-31T00:47:05.863Z,8.12
2024-01-31T00:48:05.895Z,8.12
2024-01-31T00:49:05.903Z,8.12
2024-01-31T00:50:05.796Z,8.12
2024-01-31T00:51:05.718Z,8.12
2024-01-31T00:52:05.715Z,8.13
2024-01-31T00:53:05.673Z,8.10
2024-01-31T00:54:05.686Z,8.10
2024-01-31T00:55:05.717Z,8.12
2024-01-31T00:56:05.681Z,8.10
2024-01-31T00:57:05.638Z,8.10
2024-01-31T00:58:05.677Z,8.13
2024-01-31T00:59:05.621Z,8.14
2024-01-31T01:00:05.667Z,8.14
2024-01-31T01:01:05.720Z,8.14
2024-01-31T01:02:05.693Z,8.16
2024-01-31T01:03:05.576Z,8.14
2024-01-31T01:04:05.592Z,8.13
2024-01-31T01:05:05.690Z,8.14
2024-01-31T01:06:05.651Z,8.12
2024-01-31T01:07:05.608Z,8.12
2024-01-31T01:08:05.549Z,8.12
2024-01-31T01:09:05.546Z,8.13
2024-01-31T01:10:05.512Z,8.13
2024-01-31T01:11:05.516Z,8.10
2024-01-31T01:12:05.510Z,8.13
2024-01-31T01:13:05.558Z,8.12
2024-01-31T01:14:05.470Z,8.14
2024-01-31T01:15:12.946Z,8.14
2024-01-31T01:16:05.452Z,8.13
2024-01-31T01:17:05.454Z,8.12
2024-01-31T01:18:05.440Z,8.12
2024-01-31T01:19:05.462Z,8.09
2024-01-31T01:20:05.429Z,8.12
2024-01-31T01:21:05.378Z,8.13
2024-01-31T01:22:05.455Z,8.13
2024-01-31T01:23:05.361Z,8.13
2024-01-31T01:24:05.376Z,8.13
2024-01-31T01:25:05.442Z,8.13
2024-01-31T01:26:05.328Z,8.13
2024-01-31T01:27:05.369Z,8.13
2024-01-31T01:28:05.328Z,8.13
2024-01-31T01:29:05.305Z,8.13
2024-01-31T01:30:05.306Z,8.13
2024-01-31T01:31:05.336Z,8.13
2024-01-31T01:32:05.272Z,8.13
2024-01-31T01:33:05.319Z,8.14
2024-01-31T01:34:05.352Z,8.14
2024-01-31T01:35:05.365Z,8.16
2024-01-31T01:36:05.250Z,8.16
2024-01-31T01:37:05.265Z,8.16
2024-01-31T01:38:05.184Z,8.14
2024-01-31T01:39:05.179Z,8.16
2024-01-31T01:40:05.204Z,8.16
2024-01-31T01:41:05.187Z,8.16
2024-01-31T01:42:05.137Z,8.16
2024-01-31T01:43:05.151Z,8.16
2024-01-31T01:44:05.118Z,8.17
2024-01-31T01:45:05.125Z,8.17
2024-01-31T01:46:05.147Z,8.19
2024-01-31T01:47:05.087Z,8.16
2024-01-31T01:48:05.108Z,8.19
2024-01-31T01:49:05.139Z,8.19
2024-01-31T01:50:05.071Z,8.20
2024-01-31T01:51:05.028Z,8.20
2024-01-31T01:52:05.106Z,8.19
2024-01-31T01:53:05.041Z,8.17
2024-01-31T01:54:05.013Z,8.16
2024-01-31T01:55:05.103Z,8.20
2024-01-31T01:56:04.977Z,8.20
2024-01-31T01:57:04.966Z,8.20
2024-01-31T01:58:04.979Z,8.20
2024-01-31T01:59:04.941Z,8.20
2024-01-31T02:00:04.944Z,8.20
2024-01-31T02:01:05.062Z,8.20
2024-01-31T02:02:04.956Z,8.20
2024-01-31T02:03:04.942Z,8.21
2024-01-31T02:04:04.997Z,8.17
2024-01-31T02:05:05.003Z,8.19
2024-01-31T02:06:05.139Z,8.17
2024-01-31T02:07:04.892Z,8.16
2024-01-31T02:08:04.949Z,8.17
2024-01-31T02:09:04.892Z,8.16
2024-01-31T02:10:04.867Z,8.14
2024-01-31T02:11:04.846Z,8.14
2024-01-31T02:12:04.789Z,8.16
2024-01-31T02:13:04.800Z,8.16
2024-01-31T02:14:04.796Z,8.19
2024-01-31T02:15:04.764Z,8.16
2024-01-31T02:16:04.844Z,8.17
2024-01-31T02:17:04.740Z,8.19
2024-01-31T02:18:04.798Z,8.19
2024-01-31T02:19:04.796Z,8.17
2024-01-31T02:20:04.821Z,8.17
2024-01-31T02:21:04.707Z,8.14
2024-01-31T02:22:04.719Z,8.16
2024-01-31T02:23:04.669Z,8.16
2024-01-31T02:24:04.659Z,8.14
2024-01-31T02:25:04.655Z,8.13
2024-01-31T02:26:04.665Z,8.13
2024-01-31T02:27:04.650Z,8.12
2024-01-31T02:28:04.647Z,8.12
2024-01-31T02:29:04.624Z,8.09
2024-01-31T02:30:04.612Z,8.12
2024-01-31T02:31:04.591Z,8.09
2024-01-31T02:32:04.570Z,8.09
2024-01-31T02:33:04.586Z,8.05
2024-01-31T02:34:04.674Z,8.09
2024-01-31T02:35:04.589Z,8.10
2024-01-31T02:36:04.548Z,8.09
2024-01-31T02:37:04.627Z,8.10
2024-01-31T02:38:04.517Z,8.05
2024-01-31T02:39:04.528Z,8.09
2024-01-31T02:40:04.524Z,8.09
2024-01-31T02:41:04.500Z,8.05
2024-01-31T02:42:04.455Z,8.06
2024-01-31T02:43:04.479Z,8.04
2024-01-31T02:44:04.451Z,8.05
2024-01-31T02:45:04.415Z,8.02
2024-01-31T02:46:04.440Z,8.04
2024-01-31T02:47:04.401Z,8.05
2024-01-31T02:48:04.492Z,8.05
2024-01-31T02:49:04.416Z,8.04
2024-01-31T02:50:04.512Z,8.05
2024-01-31T02:51:04.366Z,8.05
2024-01-31T02:52:04.391Z,8.04
2024-01-31T02:53:04.370Z,8.04
2024-01-31T02:54:04.318Z,8.04
2024-01-31T02:55:04.339Z,8.05
2024-01-31T02:56:04.297Z,8.05
2024-01-31T02:57:04.276Z,8.04
2024-01-31T02:58:04.321Z,8.04
2024-01-31T02:59:04.261Z,8.05
2024-01-31T03:00:04.265Z,8.05
2024-01-31T03:01:04.365Z,8.04
2024-01-31T03:02:04.301Z,8.04
2024-01-31T03:03:04.218Z,8.02
2024-01-31T03:04:04.274Z,8.02
2024-01-31T03:05:04.304Z,8.01
2024-01-31T03:06:04.247Z,8.01
2024-01-31T03:07:04.262Z,7.99
2024-01-31T03:08:04.202Z,7.99
2024-01-31T03:09:04.163Z,7.98
2024-01-31T03:10:04.146Z,7.99
2024-01-31T03:11:04.143Z,7.96
2024-01-31T03:12:04.120Z,7.98
2024-01-31T03:13:04.161Z,7.99
2024-01-31T03:14:04.103Z,7.98
2024-01-31T03:15:04.093Z,7.96
2024-01-31T03:16:04.129Z,7.99
2024-01-31T03:17:04.053Z,7.98
2024-01-31T03:18:04.232Z,7.95
2024-01-31T03:19:04.343Z,7.91
2024-01-31T03:20:04.061Z,7.94
2024-01-31T03:21:04.044Z,7.92
2024-01-31T03:22:04.070Z,7.94
2024-01-31T03:23:04.038Z,7.94
2024-01-31T03:24:04.156Z,7.92
2024-01-31T03:25:04.050Z,7.91
2024-01-31T03:26:03.985Z,7.88
2024-01-31T03:27:03.961Z,7.88
2024-01-31T03:28:04.020Z,7.84
2024-01-31T03:29:03.945Z,7.84
2024-01-31T03:30:08.883Z,7.84
2024-01-31T03:31:03.976Z,7.87
2024-01-31T03:32:03.929Z,7.84
2024-01-31T03:33:04.033Z,7.83
2024-01-31T03:34:03.991Z,7.83
2024-01-31T03:35:04.017Z,7.81
2024-01-31T03:36:03.885Z,7.78
2024-01-31T03:37:03.906Z,7.81
2024-01-31T03:38:04.001Z,7.80
2024-01-31T03:39:03.819Z,7.81
2024-01-31T03:40:03.839Z,7.78
2024-01-31T03:41:03.810Z,7.77
2024-01-31T03:42:03.799Z,7.77
2024-01-31T03:43:03.896Z,7.76
2024-01-31T03:44:03.785Z,7.74
2024-01-31T03:45:03.751Z,7.76
2024-01-31T03:46:03.763Z,7.77
2024-01-31T03:47:03.718Z,7.74
2024-01-31T03:48:03.805Z,7.77
2024-01-31T03:49:03.863Z,7.77
2024-01-31T03:50:03.718Z,7.76
2024-01-31T03:51:03.712Z,7.74
2024-01-31T03:52:03.744Z,7.73
2024-01-31T03:53:03.743Z,7.74
2024-01-31T03:54:03.656Z,7.76
2024-01-31T03:55:03.697Z,7.74
2024-01-31T03:56:03.633Z,7.74
2024-01-31T03:57:03.612Z,7.74
2024-01-31T03:58:03.789Z,7.73
2024-01-31T03:59:03.636Z,7.74
2024-01-31T04:00:03.581Z,7.76
2024-01-31T04:01:03.645Z,7.74
2024-01-31T04:02:03.695Z,7.74
2024-01-31T04:03:03.562Z,7.73
2024-01-31T04:04:03.611Z,7.71
2024-01-31T04:05:03.779Z,7.71
2024-01-31T04:06:03.541Z,7.68
2024-01-31T04:07:03.556Z,7.69
2024-01-31T04:08:03.509Z,7.69
2024-01-31T04:09:03.492Z,7.69
2024-01-31T04:10:03.489Z,7.68
2024-01-31T04:11:03.498Z,7.66
2024-01-31T04:12:03.458Z,7.69
2024-01-31T04:13:03.444Z,7.68
2024-01-31T04:14:03.467Z,7.66
2024-01-31T04:15:03.442Z,7.66
2024-01-31T04:16:03.466Z,7.66
2024-01-31T04:17:03.411Z,7.66
2024-01-31T04:18:03.441Z,7.62
2024-01-31T04:19:03.601Z,7.61
2024-01-31T04:20:03.472Z,7.62
2024-01-31T04:21:03.355Z,7.62
2024-01-31T04:22:03.415Z,7.62
2024-01-31T04:23:03.372Z,7.61
2024-01-31T04:24:03.383Z,7.61
2024-01-31T04:25:03.369Z,7.61
2024-01-31T04:26:03.333Z,7.61
2024-01-31T04:27:03.297Z,7.61
2024-01-31T04:28:03.317Z,7.58
2024-01-31T04:29:03.288Z,7.60
2024-01-31T04:30:03.286Z,7.58
2024-01-31T04:31:03.277Z,7.57
2024-01-31T04:32:03.253Z,7.55
2024-01-31T04:33:03.297Z,7.52
2024-01-31T04:34:03.349Z,7.54
2024-01-31T04:35:03.365Z,7.49
2024-01-31T04:36:03.211Z,7.47
2024-01-31T04:37:03.220Z,7.47
2024-01-31T04:38:03.195Z,7.47
2024-01-31T04:39:03.177Z,7.50
2024-01-31T04:40:03.204Z,7.47
2024-01-31T04:41:03.192Z,7.47
2024-01-31T04:42:03.173Z,7.44
2024-01-31T04:43:03.187Z,7.46
2024-01-31T04:44:03.101Z,7.44
2024-01-31T04:45:03.162Z,7.44
2024-01-31T04:46:03.122Z,7.42
2024-01-31T04:47:03.121Z,7.37
2024-01-31T04:48:03.253Z,7.34
2024-01-31T04:49:03.329Z,7.31
2024-01-31T04:50:03.212Z,7.28
2024-01-31T04:51:03.039Z,7.28
2024-01-31T04:52:03.099Z,7.25
2024-01-31T04:53:03.035Z,7.25
2024-01-31T04:54:03.022Z,7.18
2024-01-31T04:55:03.068Z,7.16
2024-01-31T04:56:03.020Z,7.11
2024-01-31T04:57:02.984Z,7.08
2024-01-31T04:58:02.989Z,7.10
2024-01-31T04:59:02.971Z,7.07
2024-01-31T05:00:02.958Z,7.07
2024-01-31T05:01:03.219Z,7.04
2024-01-31T05:02:02.964Z,7.06
2024-01-31T05:03:02.953Z,7.06
2024-01-31T05:04:03.093Z,7.06
2024-01-31T05:05:03.199Z,7.04
2024-01-31T05:06:02.990Z,7.01
2024-01-31T05:07:02.972Z,7.04
2024-01-31T05:08:02.988Z,7.03
2024-01-31T05:09:02.856Z,7.04
2024-01-31T05:10:03.204Z,7.01
2024-01-31T05:11:02.836Z,7.01
2024-01-31T05:12:02.852Z,7.03
2024-01-31T05:13:02.882Z,7.00
2024-01-31T05:14:02.835Z,7.00
2024-01-31T05:15:02.869Z,6.96
2024-01-31T05:16:02.793Z,6.97
2024-01-31T05:17:02.791Z,6.92
2024-01-31T05:18:02.888Z,6.93
2024-01-31T05:19:02.840Z,6.91
2024-01-31T05:20:02.832Z,6.91
2024-01-31T05:21:02.716Z,6.89
2024-01-31T05:22:02.711Z,6.88
2024-01-31T05:23:02.717Z,6.86
2024-01-31T05:24:02.693Z,6.85
2024-01-31T05:25:02.693Z,6.82
2024-01-31T05:26:02.681Z,6.83
2024-01-31T05:27:02.678Z,6.81
2024-01-31T05:28:02.696Z,6.78
2024-01-31T05:29:02.643Z,6.79
2024-01-31T05:30:02.642Z,6.78
2024-01-31T05:31:02.622Z,6.74
2024-01-31T05:32:02.596Z,6.78
2024-01-31T05:33:02.719Z,6.71
2024-01-31T05:34:02.623Z,6.71
2024-01-31T05:35:02.666Z,6.67
2024-01-31T05:36:02.868Z,6.70
2024-01-31T05:37:02.600Z,6.70
2024-01-31T05:38:02.521Z,6.70
2024-01-31T05:39:02.570Z,6.73
2024-01-31T05:40:02.652Z,6.68
2024-01-31T05:41:02.533Z,6.67
2024-01-31T05:42:02.515Z,6.65
2024-01-31T05:43:02.521Z,6.64
2024-01-31T05:44:02.498Z,6.64
2024-01-31T05:45:02.460Z,6.61
2024-01-31T05:46:02.499Z,6.60
2024-01-31T05:47:02.440Z,6.61
2024-01-31T05:48:02.458Z,6.61
2024-01-31T05:49:02.487Z,6.61
2024-01-31T05:50:02.460Z,6.63
2024-01-31T05:51:02.401Z,6.63
2024-01-31T05:52:02.483Z,6.63
2024-01-31T05:53:02.385Z,6.63
2024-01-31T05:54:02.360Z,6.63
2024-01-31T05:55:02.432Z,6.60
2024-01-31T05:56:02.345Z,6.55
2024-01-31T05:57:02.329Z,6.47
2024-01-31T05:58:02.358Z,6.46
2024-01-31T05:59:02.352Z,6.40
2024-01-31T06:00:02.324Z,6.38
2024-01-31T06:01:02.450Z,6.37
2024-01-31T06:02:02.282Z,6.38
2024-01-31T06:03:02.276Z,6.43
2024-01-31T06:04:02.343Z,6.43
2024-01-31T06:05:02.410Z,6.43
2024-01-31T06:06:02.282Z,6.46
2024-01-31T06:07:02.230Z,6.49
2024-01-31T06:08:05.129Z,6.47
2024-01-31T06:09:02.180Z,6.47
2024-01-31T06:10:02.291Z,6.46
2024-01-31T06:11:02.200Z,6.46
2024-01-31T06:12:02.159Z,6.45
2024-01-31T06:13:02.208Z,6.43
2024-01-31T06:14:02.123Z,6.43
2024-01-31T06:15:02.137Z,6.46
2024-01-31T06:16:02.379Z,6.43
2024-01-31T06:17:02.085Z,6.45
2024-01-31T06:18:02.096Z,6.46
2024-01-31T06:19:02.096Z,6.46
2024-01-31T06:20:02.223Z,6.43
2024-01-31T06:21:02.042Z,6.46
2024-01-31T06:22:02.009Z,6.45
2024-01-31T06:23:02.033Z,6.43
2024-01-31T06:24:01.969Z,6.46
2024-01-31T06:25:02.156Z,6.45
2024-01-31T06:26:01.991Z,6.45
2024-01-31T06:27:01.980Z,6.43
2024-01-31T06:28:01.994Z,6.42
2024-01-31T06:29:01.915Z,6.40
2024-01-31T06:30:02.090Z,6.40
2024-01-31T06:31:01.990Z,6.42
2024-01-31T06:32:02.322Z,6.38
2024-01-31T06:33:01.911Z,6.38
2024-01-31T06:34:01.920Z,6.35
2024-01-31T06:35:02.003Z,6.35
2024-01-31T06:36:01.854Z,6.35
2024-01-31T06:37:01.913Z,6.34
2024-01-31T06:38:01.834Z,6.34
2024-01-31T06:39:01.823Z,6.35
2024-01-31T06:40:01.834Z,6.35
2024-01-31T06:41:01.780Z,6.35
2024-01-31T06:42:01.787Z,6.34
2024-01-31T06:43:01.837Z,6.31
2024-01-31T06:44:01.755Z,6.27
2024-01-31T06:45:01.766Z,6.27
2024-01-31T06:46:01.770Z,6.21
2024-01-31T06:47:01.733Z,6.19
2024-01-31T06:48:01.778Z,6.18
2024-01-31T06:49:01.891Z,6.18
2024-01-31T06:50:01.764Z,6.16
2024-01-31T06:51:01.755Z,6.13
2024-01-31T06:52:01.674Z,6.11
2024-01-31T06:53:01.664Z,6.11
2024-01-31T06:54:01.662Z,6.11
2024-01-31T06:55:01.778Z,6.09
2024-01-31T06:56:01.650Z,6.13
2024-01-31T06:57:01.655Z,6.09
2024-01-31T06:58:01.697Z,6.12
2024-01-31T06:59:02.022Z,6.09
2024-01-31T07:00:01.623Z,6.11
2024-01-31T07:01:01.707Z,6.13
2024-01-31T07:02:01.656Z,6.11
2024-01-31T07:03:01.591Z,6.11
2024-01-31T07:04:01.684Z,6.11
2024-01-31T07:05:01.628Z,6.08
2024-01-31T07:06:01.527Z,6.02
2024-01-31T07:07:01.642Z,6.05
2024-01-31T07:08:01.579Z,6.02
2024-01-31T07:09:01.502Z,6.03
2024-01-31T07:10:01.636Z,6.05
2024-01-31T07:11:01.458Z,6.08
2024-01-31T07:12:01.581Z,6.06
2024-01-31T07:13:01.561Z,6.08
2024-01-31T07:14:01.445Z,6.11
2024-01-31T07:15:01.406Z,6.09
2024-01-31T07:16:01.395Z,6.09
2024-01-31T07:17:01.404Z,6.11
2024-01-31T07:18:01.521Z,6.11
2024-01-31T07:19:01.639Z,6.12
2024-01-31T07:20:01.429Z,6.12
2024-01-31T07:21:01.356Z,6.11
2024-01-31T07:22:01.361Z,6.18
2024-01-31T07:23:01.341Z,6.16
2024-01-31T07:24:07.122Z,6.15
2024-01-31T07:25:01.416Z,6.15
2024-01-31T07:26:01.319Z,6.13
2024-01-31T07:27:01.278Z,6.13
2024-01-31T07:28:01.363Z,6.13
2024-01-31T07:29:01.266Z,6.12
2024-01-31T07:30:01.258Z,6.15
2024-01-31T07:31:01.285Z,6.15
2024-01-31T07:32:01.363Z,6.18
2024-01-31T07:33:01.199Z,6.18
2024-01-31T07:34:01.457Z,6.18
2024-01-31T07:35:01.356Z,6.19
2024-01-31T07:36:01.186Z,6.24
2024-01-31T07:37:01.338Z,6.27
2024-01-31T07:38:01.232Z,6.25
2024-01-31T07:39:01.203Z,6.27
2024-01-31T07:40:01.339Z,6.25
2024-01-31T07:41:01.181Z,6.27
2024-01-31T07:42:01.196Z,6.25
2024-01-31T07:43:01.160Z,6.27
2024-01-31T07:44:01.217Z,6.24
2024-01-31T07:45:01.092Z,6.24
2024-01-31T07:46:01.151Z,6.19
2024-01-31T07:47:01.155Z,6.21
2024-01-31T07:48:01.079Z,6.18
2024-01-31T07:49:01.175Z,6.19
2024-01-31T07:50:01.170Z,6.24
2024-01-31T07:51:01.012Z,6.21
2024-01-31T07:52:01.039Z,6.24
2024-01-31T07:53:01.045Z,6.19
2024-01-31T07:54:01.049Z,6.25
2024-01-31T07:55:01.111Z,6.25
2024-01-31T07:56:04.250Z,6.28
2024-01-31T07:57:00.958Z,6.24
2024-01-31T07:58:01.061Z,6.27
2024-01-31T07:59:00.959Z,6.25
2024-01-31T08:00:00.954Z,6.28
2024-01-31T08:01:01.137Z,6.28
2024-01-31T08:02:00.940Z,6.27
2024-01-31T08:03:00.933Z,6.28
2024-01-31T08:04:01.056Z,6.31
2024-01-31T08:05:00.965Z,6.30
2024-01-31T08:06:01.095Z,6.32
2024-01-31T08:07:00.883Z,6.35
2024-01-31T08:08:00.855Z,6.37
2024-01-31T08:09:07.887Z,6.42
2024-01-31T08:10:00.880Z,6.43
2024-01-31T08:11:00.826Z,6.43
2024-01-31T08:12:00.821Z,6.43
2024-01-31T08:13:00.878Z,6.46
2024-01-31T08:14:00.802Z,6.49
2024-01-31T08:15:00.802Z,6.50
2024-01-31T08:16:00.805Z,6.52
2024-01-31T08:17:00.776Z,6.52
2024-01-31T08:18:00.794Z,6.53
2024-01-31T08:19:00.834Z,6.57
2024-01-31T08:20:00.827Z,6.55
2024-01-31T08:21:00.693Z,6.60
2024-01-31T08:22:00.777Z,6.60
2024-01-31T08:23:00.886Z,6.61
2024-01-31T08:24:00.699Z,6.56
2024-01-31T08:25:00.687Z,6.61
2024-01-31T08:26:00.804Z,6.60
2024-01-31T08:27:00.641Z,6.63
2024-01-31T08:28:00.693Z,6.64
2024-01-31T08:29:10.768Z,6.63
2024-01-31T08:30:00.758Z,6.64
2024-01-31T08:31:00.672Z,6.64
2024-01-31T08:32:00.670Z,6.64
2024-01-31T08:33:00.682Z,6.64
2024-01-31T08:34:00.754Z,6.64
2024-01-31T08:35:00.617Z,6.65
2024-01-31T08:36:00.561Z,6.68
2024-01-31T08:37:00.795Z,6.64
2024-01-31T08:38:00.552Z,6.67
2024-01-31T08:39:00.576Z,6.67
2024-01-31T08:40:00.600Z,6.67
2024-01-31T08:41:00.554Z,6.68
2024-01-31T08:42:00.755Z,6.68
2024-01-31T08:43:00.643Z,6.70
2024-01-31T08:44:00.493Z,6.73
2024-01-31T08:45:00.509Z,6.74
2024-01-31T08:46:02.844Z,6.74
2024-01-31T08:47:10.854Z,6.75
2024-01-31T08:48:00.520Z,6.75
2024-01-31T08:49:00.545Z,6.78
2024-01-31T08:50:00.520Z,6.81
2024-01-31T08:51:00.401Z,6.81
2024-01-31T08:52:03.003Z,6.82
2024-01-31T08:53:00.443Z,6.85
2024-01-31T08:54:00.368Z,6.88
2024-01-31T08:55:00.416Z,6.86
2024-01-31T08:56:08.502Z,6.88
2024-01-31T08:57:00.319Z,6.89
2024-01-31T08:58:00.453Z,6.93
2024-01-31T08:59:00.314Z,6.93
2024-01-31T09:00:00.329Z,6.93
2024-01-31T09:01:00.316Z,6.93
2024-01-31T09:02:00.269Z,6.93
2024-01-31T09:03:00.242Z,6.96
2024-01-31T09:04:00.294Z,6.93
2024-01-31T09:05:00.345Z,6.96
2024-01-31T09:06:00.521Z,6.97
2024-01-31T09:07:00.227Z,7.01
2024-01-31T09:08:00.220Z,7.03
2024-01-31T09:09:00.202Z,7.01
2024-01-31T09:10:00.224Z,7.03
2024-01-31T09:11:00.325Z,7.01
2024-01-31T09:12:00.210Z,6.97
2024-01-31T09:13:00.154Z,7.03
2024-01-31T09:14:00.130Z,7.03
2024-01-31T09:15:00.134Z,7.01
2024-01-31T09:16:00.128Z,7.04
2024-01-31T09:17:00.101Z,7.06
2024-01-31T09:18:00.136Z,7.08
2024-01-31T09:19:00.143Z,7.11
2024-01-31T09:20:00.081Z,7.11
2024-01-31T09:21:00.051Z,7.15
2024-01-31T09:22:00.065Z,7.16
2024-01-31T09:23:00.040Z,7.15
2024-01-31T09:24:00.007Z,7.15
2024-01-31T09:25:00.001Z,7.18
2024-01-31T09:25:59.995Z,7.16
2024-01-31T09:26:59.990Z,7.19
2024-01-31T09:27:59.997Z,7.21
2024-01-31T09:28:59.964Z,7.19
2024-01-31T09:29:59.953Z,7.22
2024-01-31T09:30:59.942Z,7.22
2024-01-31T09:31:59.959Z,7.25
2024-01-31T09:32:59.929Z,7.25
2024-01-31T09:33:59.994Z,7.26
2024-01-31T09:34:59.986Z,7.26
2024-01-31T09:35:59.888Z,7.28
2024-01-31T09:36:59.868Z,7.29
2024-01-31T09:37:59.858Z,7.31
2024-01-31T09:38:59.860Z,7.28
2024-01-31T09:39:59.836Z,7.31
2024-01-31T09:40:59.936Z,7.33
2024-01-31T09:41:59.813Z,7.31
2024-01-31T09:42:59.792Z,7.34
2024-01-31T09:43:59.793Z,7.34
2024-01-31T09:44:59.791Z,7.34
2024-01-31T09:45:59.774Z,7.34
2024-01-31T09:46:59.821Z,7.31
2024-01-31T09:47:59.805Z,7.37
2024-01-31T09:48:59.811Z,7.40
2024-01-31T09:49:59.764Z,7.37
2024-01-31T09:50:59.728Z,7.42
2024-01-31T09:51:59.710Z,7.40
2024-01-31T09:52:59.699Z,7.44
2024-01-31T09:53:59.735Z,7.46
2024-01-31T09:54:59.675Z,7.47
2024-01-31T09:55:59.678Z,7.52
2024-01-31T09:56:59.664Z,7.50
2024-01-31T09:57:59.639Z,7.54
2024-01-31T09:58:59.624Z,7.55
2024-01-31T09:59:59.643Z,7.55
2024-01-31T10:01:03.832Z,7.60
2024-01-31T10:01:59.660Z,7.58
2024-01-31T10:02:59.710Z,7.61
2024-01-31T10:03:59.818Z,7.61
2024-01-31T10:04:59.643Z,7.64
2024-01-31T10:05:59.584Z,7.66
2024-01-31T10:06:59.534Z,7.71
2024-01-31T10:07:59.537Z,7.69
2024-01-31T10:08:59.624Z,7.73
2024-01-31T10:09:59.536Z,7.74
2024-01-31T10:10:59.572Z,7.77
2024-01-31T10:11:59.501Z,7.80
2024-01-31T10:12:59.458Z,7.81
2024-01-31T10:13:59.527Z,7.83
2024-01-31T10:14:59.483Z,7.86
2024-01-31T10:15:59.442Z,7.87
2024-01-31T10:16:59.459Z,7.88
2024-01-31T10:17:59.465Z,7.94
2024-01-31T10:18:59.434Z,7.95
2024-01-31T10:20:02.274Z,7.95
2024-01-31T10:20:59.426Z,7.96
2024-01-31T10:21:59.374Z,8.01
2024-01-31T10:22:59.352Z,8.02
2024-01-31T10:23:59.381Z,8.02
2024-01-31T10:24:59.389Z,8.01
2024-01-31T10:25:59.581Z,8.06
2024-01-31T10:26:59.425Z,8.09
2024-01-31T10:27:59.310Z,8.04
2024-01-31T10:29:08.038Z,8.05
2024-01-31T10:29:59.315Z,8.09
2024-01-31T10:30:59.416Z,8.09
2024-01-31T10:31:59.362Z,8.12
2024-01-31T10:32:59.340Z,8.12
2024-01-31T10:33:59.358Z,8.17
2024-01-31T10:35:20.884Z,8.17
2024-01-31T10:38:01.988Z,8.23
2024-01-31T10:38:59.483Z,8.23
2024-01-31T10:39:59.347Z,8.21
2024-01-31T10:40:59.317Z,8.21
2024-01-31T10:41:59.138Z,8.24
2024-01-31T10:42:59.144Z,8.26
2024-01-31T10:43:59.722Z,8.28
2024-01-31T10:44:59.271Z,8.31
2024-01-31T10:45:59.117Z,8.32
2024-01-31T10:46:59.083Z,8.34
2024-01-31T10:47:59.261Z,8.34
2024-01-31T10:48:59.338Z,8.37
2024-01-31T10:49:59.156Z,8.37
2024-01-31T10:50:59.112Z,8.35
2024-01-31T10:51:59.040Z,8.32
2024-01-31T10:52:59.011Z,8.35
2024-01-31T10:53:59.223Z,8.35
2024-01-31T10:54:59.128Z,8.35
2024-01-31T10:55:59.169Z,8.34
2024-01-31T10:56:59.338Z,8.37
2024-01-31T10:57:58.986Z,8.35
2024-01-31T10:59:03.220Z,8.34
2024-01-31T10:59:59.053Z,8.37
2024-01-31T11:00:59.043Z,8.38
2024-01-31T11:01:58.919Z,8.39
2024-01-31T11:02:59.041Z,8.42
2024-01-31T11:03:58.944Z,8.39
2024-01-31T11:04:58.924Z,8.41
2024-01-31T11:05:59.003Z,8.41
2024-01-31T11:06:59.000Z,8.41
2024-01-31T11:07:58.869Z,8.39
2024-01-31T11:08:58.924Z,8.39
2024-01-31T11:09:58.861Z,8.41
2024-01-31T11:10:58.814Z,8.37
2024-01-31T11:11:58.845Z,8.32
2024-01-31T11:12:58.821Z,8.32
2024-01-31T11:13:58.810Z,8.32
2024-01-31T11:14:58.835Z,8.34
2024-01-31T11:15:58.763Z,8.34
2024-01-31T11:16:58.754Z,8.34
2024-01-31T11:17:58.828Z,8.34
2024-01-31T11:18:58.813Z,8.31
2024-01-31T11:19:58.750Z,8.34
2024-01-31T11:20:58.797Z,8.35
2024-01-31T11:21:58.820Z,8.32
2024-01-31T11:22:58.714Z,8.29
2024-01-31T11:23:58.714Z,8.29
2024-01-31T11:24:58.725Z,8.29
2024-01-31T11:25:58.687Z,8.31
2024-01-31T11:26:58.741Z,8.31
2024-01-31T11:27:58.652Z,8.29
2024-01-31T11:28:58.618Z,8.29
2024-01-31T11:29:58.625Z,8.28
2024-01-31T11:30:58.619Z,8.31
2024-01-31T11:31:58.600Z,8.31
2024-01-31T11:32:58.650Z,8.28
2024-01-31T11:33:58.658Z,8.29
2024-01-31T11:34:58.578Z,8.28
2024-01-31T11:35:58.581Z,8.24
2024-01-31T11:36:58.577Z,8.24
2024-01-31T11:37:58.565Z,8.21
2024-01-31T11:38:58.601Z,8.24
2024-01-31T11:39:58.512Z,8.26
2024-01-31T11:40:58.524Z,8.24
2024-01-31T11:41:58.534Z,8.26
2024-01-31T11:42:58.492Z,8.26
2024-01-31T11:43:58.480Z,8.28
2024-01-31T11:44:58.532Z,8.28
2024-01-31T11:45:58.460Z,8.26
2024-01-31T11:46:58.460Z,8.32
2024-01-31T11:47:58.701Z,8.32
2024-01-31T11:48:58.686Z,8.35
2024-01-31T11:49:58.468Z,8.34
2024-01-31T11:50:58.411Z,8.35
2024-01-31T11:51:58.435Z,8.38
2024-01-31T11:52:58.392Z,8.41
2024-01-31T11:53:58.451Z,8.41
2024-01-31T11:54:58.400Z,8.44
2024-01-31T11:55:58.389Z,8.49
2024-01-31T11:56:58.379Z,8.50
2024-01-31T11:57:58.368Z,8.53
2024-01-31T11:58:58.333Z,8.53
2024-01-31T11:59:58.370Z,8.53
2024-01-31T12:00:58.356Z,8.53
2024-01-31T12:01:58.312Z,8.55
2024-01-31T12:02:58.411Z,8.55
2024-01-31T12:03:58.272Z,8.57
2024-01-31T12:05:00.327Z,8.59
2024-01-31T12:05:58.377Z,8.62
2024-01-31T12:06:58.323Z,8.65
2024-01-31T12:07:58.316Z,8.67
2024-01-31T12:08:58.288Z,8.65
2024-01-31T12:09:58.215Z,8.70
2024-01-31T12:10:58.225Z,8.68
2024-01-31T12:11:58.311Z,8.68
2024-01-31T12:12:58.191Z,8.71
2024-01-31T12:13:58.173Z,8.68
2024-01-31T12:14:58.257Z,8.68
2024-01-31T12:15:58.174Z,8.65
2024-01-31T12:16:58.134Z,8.62
2024-01-31T12:17:58.389Z,8.59
2024-01-31T12:18:58.444Z,8.57
2024-01-31T12:19:58.156Z,8.57
2024-01-31T12:20:58.106Z,8.63
2024-01-31T12:21:58.099Z,8.70
2024-01-31T12:22:58.078Z,8.72
2024-01-31T12:23:58.108Z,8.72
2024-01-31T12:24:58.055Z,8.74
2024-01-31T12:25:58.108Z,8.75
2024-01-31T12:26:58.116Z,8.75
2024-01-31T12:27:58.034Z,8.77
2024-01-31T12:28:58.034Z,8.80
2024-01-31T12:29:58.077Z,8.85
2024-01-31T12:30:58.012Z,8.86
2024-01-31T12:31:58.002Z,8.85
2024-01-31T12:32:58.050Z,8.83
2024-01-31T12:33:58.068Z,8.83
2024-01-31T12:34:58.033Z,8.83
2024-01-31T12:35:57.997Z,8.85
2024-01-31T12:36:57.989Z,8.83
2024-01-31T12:37:57.926Z,8.85
2024-01-31T12:38:57.912Z,8.83
2024-01-31T12:39:57.894Z,8.83
2024-01-31T12:40:57.871Z,8.81
2024-01-31T12:41:57.901Z,8.77
2024-01-31T12:42:57.864Z,8.78
2024-01-31T12:43:57.856Z,8.78
2024-01-31T12:44:57.968Z,8.81
2024-01-31T12:45:57.823Z,8.81
2024-01-31T12:46:57.809Z,8.85
2024-01-31T12:47:57.891Z,8.88
2024-01-31T12:48:57.889Z,8.90
2024-01-31T12:49:57.833Z,8.92
2024-01-31T12:50:57.813Z,8.95
2024-01-31T12:51:57.799Z,8.93
2024-01-31T12:52:57.812Z,8.98
2024-01-31T12:53:57.818Z,8.98
2024-01-31T12:54:57.724Z,8.99
2024-01-31T12:55:57.720Z,8.98
2024-01-31T12:56:57.707Z,8.98
2024-01-31T12:57:57.682Z,8.95
2024-01-31T12:58:57.715Z,8.95
2024-01-31T12:59:57.713Z,8.92
2024-01-31T13:00:57.750Z,8.95
2024-01-31T13:01:57.675Z,8.95
2024-01-31T13:02:57.799Z,9.01
2024-01-31T13:03:57.718Z,9.06
2024-01-31T13:04:57.610Z,9.04
2024-01-31T13:05:57.676Z,9.06
2024-01-31T13:06:57.657Z,9.11
2024-01-31T13:07:57.606Z,9.11
2024-01-31T13:08:57.627Z,9.09
2024-01-31T13:09:57.550Z,9.08
2024-01-31T13:10:57.552Z,9.01
2024-01-31T13:11:57.585Z,8.95
2024-01-31T13:12:57.540Z,8.93
2024-01-31T13:13:57.525Z,8.93
2024-01-31T13:14:57.630Z,8.95
2024-01-31T13:15:58.600Z,8.93
2024-01-31T13:17:01.904Z,8.96
2024-01-31T13:17:57.696Z,8.98
2024-01-31T13:18:57.645Z,9.08
2024-01-31T13:19:57.484Z,9.14